Time;durP1;ratioP1;P1;durP2;ratioP2;P2;SDS_P1;SDS_P2;PMS_P1;PMS_P2;Temp;Humidity;BMP_temperature;BMP_pressure;BME280_temperature;BME280_humidity;BME280_pressure;Samples;Min_cycle;Max_cycle;Signal;HPM_P1;HPM_P2
2022/08/09 00:01:29;;;;;;;10.18;4.50;;;;;;;;;;5063235;28;20044;-80
2022/08/09 00:03:54;;;;;;;10.77;4.38;;;;;;;;;;5054855;28;20414;-80
2022/08/09 00:06:20;;;;;;;6.63;4.22;;;;;;;;;;5066263;28;20037;-80
2022/08/09 00:08:48;;;;;;;7.55;5.05;;;;;;;;;;5077503;28;20088;-81
2022/08/09 00:11:14;;;;;;;6.72;4.35;;;;;;;;;;5080335;28;20086;-80
2022/08/09 00:13:39;;;;;;;10.27;4.63;;;;;;;;;;5049533;28;20037;-81
2022/08/09 00:16:05;;;;;;;7.80;4.72;;;;;;;;;;5086279;28;20062;-80
2022/08/09 00:18:30;;;;;;;13.43;4.97;;;;;;;;;;5073345;28;20047;-80
2022/08/09 00:20:56;;;;;;;9.32;4.80;;;;;;;;;;5063732;28;20039;-81
2022/08/09 00:23:21;;;;;;;9.20;4.93;;;;;;;;;;5057705;28;20065;-81
2022/08/09 00:25:51;;;;;;;10.27;4.70;;;;;;;;;;5056684;28;20397;-80
2022/08/09 00:28:16;;;;;;;7.80;4.65;;;;;;;;;;5056024;28;20128;-80
2022/08/09 00:30:42;;;;;;;7.32;5.03;;;;;;;;;;5077444;28;20035;-81
2022/08/09 00:33:07;;;;;;;10.07;4.70;;;;;;;;;;5074921;28;20090;-81
2022/08/09 00:35:33;;;;;;;10.48;5.10;;;;;;;;;;5056280;28;20078;-80
2022/08/09 00:37:58;;;;;;;6.80;5.28;;;;;;;;;;5058468;28;20029;-81
2022/08/09 00:40:23;;;;;;;9.80;5.20;;;;;;;;;;5058312;28;20172;-80
2022/08/09 00:42:49;;;;;;;11.10;5.88;;;;;;;;;;5068808;28;20594;-81
2022/08/09 00:45:14;;;;;;;10.82;5.30;;;;;;;;;;5056306;28;20029;-82
2022/08/09 00:47:39;;;;;;;7.78;5.03;;;;;;;;;;5058924;28;20504;-76
2022/08/09 00:50:21;;;;;;;8.73;4.90;;;;;;;;;;5015316;28;20283;-76
2022/08/09 00:52:47;;;;;;;8.63;5.03;;;;;;;;;;5027624;28;20429;-77
2022/08/09 00:55:12;;;;;;;7.22;5.65;;;;;;;;;;5030739;28;20111;-76
2022/08/09 00:57:37;;;;;;;9.20;5.35;;;;;;;;;;5028146;28;20145;-77
2022/08/09 01:00:09;;;;;;;9.73;5.68;;;;;;;;;;5036855;28;20048;-77
2022/08/09 01:02:46;;;;;;;7.88;5.45;;;;;;;;;;5027216;28;20051;-81
2022/08/09 01:05:20;;;;;;;9.30;5.88;;;;;;;;;;5043476;28;20447;-81
2022/08/09 01:07:48;;;;;;;11.38;6.18;;;;;;;;;;5063379;28;20189;-81
2022/08/09 01:10:25;;;;;;;10.00;6.20;;;;;;;;;;5047642;28;20098;-81
2022/08/09 01:12:55;;;;;;;8.73;6.60;;;;;;;;;;5039750;28;20118;-82
2022/08/09 01:15:23;;;;;;;9.75;6.40;;;;;;;;;;5042689;28;20035;-81
2022/08/09 01:17:51;;;;;;;11.38;6.55;;;;;;;;;;5040899;28;20032;-80
2022/08/09 01:20:19;;;;;;;8.45;6.43;;;;;;;;;;5029362;28;20116;-81
2022/08/09 01:23:06;;;;;;;9.30;7.00;;;;;;;;;;5063564;28;20068;-82
2022/08/09 01:25:51;;;;;;;10.57;6.50;;;;;;;;;;5052699;28;20043;-82
2022/08/09 01:28:17;;;;;;;11.65;6.25;;;;;;;;;;5042103;28;20028;-81
2022/08/09 01:30:43;;;;;;;10.90;6.95;;;;;;;;;;5031922;28;20032;-82
2022/08/09 01:33:10;;;;;;;11.80;7.35;;;;;;;;;;5045002;28;20678;-82
2022/08/09 01:35:47;;;;;;;11.13;7.85;;;;;;;;;;5042657;28;20033;-81
2022/08/09 01:38:15;;;;;;;10.13;6.50;;;;;;;;;;5054000;28;20533;-82
2022/08/09 01:40:45;;;;;;;13.18;7.50;;;;;;;;;;5037101;28;20044;-81
2022/08/09 01:43:10;;;;;;;11.02;7.43;;;;;;;;;;5042447;28;20580;-81
2022/08/09 01:45:36;;;;;;;10.63;7.25;;;;;;;;;;5058856;28;20139;-79
2022/08/09 01:48:03;;;;;;;12.55;7.43;;;;;;;;;;5047760;28;20036;-80
2022/08/09 01:50:29;;;;;;;13.40;7.65;;;;;;;;;;5039697;28;20040;-81
2022/08/09 01:52:56;;;;;;;16.13;8.18;;;;;;;;;;5036992;28;20048;-81
2022/08/09 01:55:23;;;;;;;12.45;8.18;;;;;;;;;;5039146;28;20617;-80
2022/08/09 01:57:52;;;;;;;13.55;7.82;;;;;;;;;;5037148;28;20056;-81
2022/08/09 02:00:19;;;;;;;15.13;8.18;;;;;;;;;;5034229;28;20449;-81
2022/08/09 02:02:46;;;;;;;11.02;7.05;;;;;;;;;;5027857;28;20517;-82
2022/08/09 02:05:16;;;;;;;11.45;8.07;;;;;;;;;;5030365;28;20036;-78
2022/08/09 02:07:50;;;;;;;11.57;7.50;;;;;;;;;;5027815;28;20044;-81
2022/08/09 02:10:19;;;;;;;12.27;7.55;;;;;;;;;;5043049;28;20036;-81
2022/08/09 02:12:46;;;;;;;10.95;8.10;;;;;;;;;;5026058;28;20061;-81
2022/08/09 02:15:13;;;;;;;10.93;7.72;;;;;;;;;;5034159;28;20037;-80
2022/08/09 02:17:40;;;;;;;9.48;7.78;;;;;;;;;;5034074;28;20174;-80
2022/08/09 02:20:06;;;;;;;12.85;7.80;;;;;;;;;;5034563;28;20087;-80
2022/08/09 02:22:35;;;;;;;13.95;8.68;;;;;;;;;;5050907;28;20666;-81
2022/08/09 02:25:02;;;;;;;12.60;7.75;;;;;;;;;;5032390;28;20099;-78
2022/08/09 02:27:31;;;;;;;12.55;9.05;;;;;;;;;;5034505;28;20465;-81
2022/08/09 02:29:57;;;;;;;11.05;8.30;;;;;;;;;;5032114;28;20029;-80
2022/08/09 02:32:25;;;;;;;12.02;8.30;;;;;;;;;;5040660;28;20486;-81
2022/08/09 02:34:56;;;;;;;13.88;8.65;;;;;;;;;;5035178;28;20056;-81
2022/08/09 02:37:24;;;;;;;15.00;8.68;;;;;;;;;;5030113;28;20029;-80
2022/08/09 02:39:57;;;;;;;13.88;8.98;;;;;;;;;;5039509;28;20036;-78
2022/08/09 02:42:26;;;;;;;14.35;8.38;;;;;;;;;;5036088;28;20065;-80
2022/08/09 02:44:54;;;;;;;11.23;8.45;;;;;;;;;;5039945;28;20150;-79
2022/08/09 02:47:21;;;;;;;18.20;8.88;;;;;;;;;;5035694;28;20165;-79
2022/08/09 02:49:49;;;;;;;11.63;8.02;;;;;;;;;;5040539;28;20294;-79
2022/08/09 02:52:15;;;;;;;14.15;9.15;;;;;;;;;;5053842;28;20036;-76
2022/08/09 02:54:42;;;;;;;14.52;9.52;;;;;;;;;;5060531;28;20769;-77
2022/08/09 02:57:08;;;;;;;14.63;9.90;;;;;;;;;;5065451;28;20028;-76
2022/08/09 02:59:34;;;;;;;12.73;9.55;;;;;;;;;;5058277;28;20041;-75
2022/08/09 03:02:02;;;;;;;15.90;10.15;;;;;;;;;;5065720;28;20485;-75
2022/08/09 03:04:30;;;;;;;17.00;9.43;;;;;;;;;;5059538;28;20055;-76
2022/08/09 03:06:57;;;;;;;15.40;9.68;;;;;;;;;;5062342;28;20481;-77
2022/08/09 03:09:23;;;;;;;18.73;9.45;;;;;;;;;;5065944;28;20033;-77
2022/08/09 03:11:48;;;;;;;13.38;9.40;;;;;;;;;;5058298;28;20052;-76
2022/08/09 03:14:15;;;;;;;14.43;9.95;;;;;;;;;;5055007;28;20437;-77
2022/08/09 03:16:40;;;;;;;14.13;9.18;;;;;;;;;;5075382;28;20024;-76
2022/08/09 03:19:06;;;;;;;15.05;9.02;;;;;;;;;;5060337;28;20031;-75
2022/08/09 03:21:32;;;;;;;16.83;9.60;;;;;;;;;;5053372;27;20043;-75
2022/08/09 03:23:57;;;;;;;17.40;9.40;;;;;;;;;;5081421;27;20262;-76
2022/08/09 03:26:23;;;;;;;16.02;9.27;;;;;;;;;;5082466;28;21427;-76
2022/08/09 03:28:49;;;;;;;15.85;8.95;;;;;;;;;;5061499;28;20063;-80
2022/08/09 03:31:15;;;;;;;13.73;9.02;;;;;;;;;;5052474;28;20033;-81
2022/08/09 03:33:41;;;;;;;13.40;9.30;;;;;;;;;;5062226;28;20114;-82
2022/08/09 03:36:07;;;;;;;17.83;9.00;;;;;;;;;;5059161;28;20653;-82
2022/08/09 03:38:36;;;;;;;13.88;8.80;;;;;;;;;;5055272;28;20029;-81
2022/08/09 03:41:02;;;;;;;11.90;8.00;;;;;;;;;;5057130;28;22272;-81
2022/08/09 03:43:28;;;;;;;10.02;7.78;;;;;;;;;;5043045;28;20072;-75
2022/08/09 03:45:53;;;;;;;11.80;7.85;;;;;;;;;;5046064;28;20043;-75
2022/08/09 03:48:22;;;;;;;10.43;7.15;;;;;;;;;;5049569;28;20548;-75
2022/08/09 03:50:49;;;;;;;15.65;8.75;;;;;;;;;;5041952;28;20541;-76
2022/08/09 03:53:15;;;;;;;11.50;8.25;;;;;;;;;;5048522;28;20037;-75
2022/08/09 03:55:40;;;;;;;10.25;7.88;;;;;;;;;;5039682;28;20076;-75
2022/08/09 03:58:06;;;;;;;15.60;9.23;;;;;;;;;;5052929;28;20127;-76
2022/08/09 04:00:33;;;;;;;12.32;8.70;;;;;;;;;;5020691;28;20048;-75
2022/08/09 04:02:59;;;;;;;13.88;9.00;;;;;;;;;;5036779;28;20395;-75
2022/08/09 04:05:25;;;;;;;14.50;9.25;;;;;;;;;;5037824;28;20117;-76
2022/08/09 04:07:50;;;;;;;15.13;9.93;;;;;;;;;;5025938;27;20052;-82
2022/08/09 04:10:16;;;;;;;14.80;9.98;;;;;;;;;;5044898;28;20040;-82
2022/08/09 04:12:43;;;;;;;18.67;11.13;;;;;;;;;;5026932;28;20040;-83
2022/08/09 04:15:09;;;;;;;15.00;11.13;;;;;;;;;;5026853;28;20625;-83
2022/08/09 04:17:35;;;;;;;15.43;10.48;;;;;;;;;;5023897;28;20036;-84
2022/08/09 04:20:00;;;;;;;13.38;9.88;;;;;;;;;;5024621;28;20550;-84
2022/08/09 04:22:25;;;;;;;15.38;11.35;;;;;;;;;;5054929;28;20066;-82
2022/08/09 04:24:51;;;;;;;18.38;10.85;;;;;;;;;;5034895;28;20392;-83
2022/08/09 04:27:16;;;;;;;17.25;10.60;;;;;;;;;;5029560;28;20075;-83
2022/08/09 04:29:47;;;;;;;17.42;10.55;;;;;;;;;;5030324;28;20071;-82
2022/08/09 04:32:12;;;;;;;16.77;11.02;;;;;;;;;;5042668;28;20032;-81
2022/08/09 04:34:40;;;;;;;13.02;9.98;;;;;;;;;;5042492;28;20033;-83
2022/08/09 04:37:05;;;;;;;15.20;10.23;;;;;;;;;;5045994;28;20665;-83
2022/08/09 04:39:33;;;;;;;14.95;10.52;;;;;;;;;;5031128;28;20050;-83
2022/08/09 04:41:58;;;;;;;18.02;10.88;;;;;;;;;;5032076;28;20117;-82
2022/08/09 04:44:24;;;;;;;16.60;10.82;;;;;;;;;;5030461;28;20049;-84
2022/08/09 04:46:49;;;;;;;17.38;11.43;;;;;;;;;;5034596;28;20157;-82
2022/08/09 04:49:14;;;;;;;18.52;10.95;;;;;;;;;;5028903;28;20036;-84
2022/08/09 04:51:42;;;;;;;19.27;11.68;;;;;;;;;;5024092;28;20033;-83
2022/08/09 04:54:07;;;;;;;19.52;11.63;;;;;;;;;;5012735;28;20051;-83
2022/08/09 04:56:32;;;;;;;19.73;11.38;;;;;;;;;;5025668;28;20368;-83
2022/08/09 04:58:58;;;;;;;19.63;11.93;;;;;;;;;;5034768;28;20700;-83
2022/08/09 05:01:24;;;;;;;15.00;11.07;;;;;;;;;;5026585;28;20033;-79
2022/08/09 05:03:49;;;;;;;17.17;11.63;;;;;;;;;;5025228;28;20039;-83
2022/08/09 05:06:15;;;;;;;20.60;11.73;;;;;;;;;;5032662;28;20531;-83
2022/08/09 05:08:41;;;;;;;22.00;11.93;;;;;;;;;;5029399;28;20390;-84
2022/08/09 05:11:06;;;;;;;18.33;11.50;;;;;;;;;;5029436;28;20552;-83
2022/08/09 05:13:32;;;;;;;18.02;11.70;;;;;;;;;;5036050;28;20223;-82
2022/08/09 05:15:57;;;;;;;19.13;12.05;;;;;;;;;;5034636;28;20045;-83
2022/08/09 05:18:28;;;;;;;20.15;11.98;;;;;;;;;;5032724;28;20040;-83
2022/08/09 05:20:54;;;;;;;19.13;12.75;;;;;;;;;;5026904;28;20393;-84
2022/08/09 05:23:24;;;;;;;16.35;11.93;;;;;;;;;;5027851;28;20497;-84
2022/08/09 05:25:50;;;;;;;18.33;11.52;;;;;;;;;;5039361;28;20990;-84
2022/08/09 05:28:15;;;;;;;15.90;11.65;;;;;;;;;;5025051;28;20036;-83
2022/08/09 05:30:40;;;;;;;17.52;11.38;;;;;;;;;;5025423;28;20029;-84
2022/08/09 05:33:06;;;;;;;19.02;12.18;;;;;;;;;;5022124;28;20043;-84
2022/08/09 05:35:31;;;;;;;15.70;11.32;;;;;;;;;;5027235;28;20037;-82
2022/08/09 05:37:57;;;;;;;18.70;12.13;;;;;;;;;;5019301;28;20584;-83
2022/08/09 05:40:22;;;;;;;18.95;12.18;;;;;;;;;;5023265;28;20047;-82
2022/08/09 05:42:48;;;;;;;22.30;12.25;;;;;;;;;;5025998;28;20512;-83
2022/08/09 05:45:14;;;;;;;20.42;12.60;;;;;;;;;;5019782;28;20470;-83
2022/08/09 05:47:47;;;;;;;17.92;11.95;;;;;;;;;;5016668;28;20029;-84
2022/08/09 05:50:12;;;;;;;18.42;12.45;;;;;;;;;;5026198;28;20113;-83
2022/08/09 05:52:38;;;;;;;16.55;11.82;;;;;;;;;;5028892;28;20419;-82
2022/08/09 05:55:05;;;;;;;17.08;11.57;;;;;;;;;;5023819;28;20052;-83
2022/08/09 05:57:33;;;;;;;19.20;12.00;;;;;;;;;;5030167;28;20191;-83
2022/08/09 05:59:59;;;;;;;16.02;10.65;;;;;;;;;;5028156;28;21848;-84
2022/08/09 06:02:28;;;;;;;15.50;10.68;;;;;;;;;;5027565;28;20098;-83
2022/08/09 06:04:53;;;;;;;15.73;10.27;;;;;;;;;;5026953;28;20556;-84
2022/08/09 06:07:21;;;;;;;15.30;10.00;;;;;;;;;;5015873;28;20635;-83
2022/08/09 06:09:46;;;;;;;17.23;10.45;;;;;;;;;;5041573;28;20114;-83
2022/08/09 06:12:11;;;;;;;18.02;9.50;;;;;;;;;;5027139;28;20262;-82
2022/08/09 06:14:37;;;;;;;14.25;8.82;;;;;;;;;;5027453;28;20324;-82
2022/08/09 06:17:03;;;;;;;14.20;9.95;;;;;;;;;;5026575;28;20107;-83
2022/08/09 06:19:28;;;;;;;13.18;9.18;;;;;;;;;;5024750;28;20071;-81
2022/08/09 06:21:54;;;;;;;11.50;8.10;;;;;;;;;;5028657;28;20036;-83
2022/08/09 06:24:19;;;;;;;12.95;8.43;;;;;;;;;;5027578;28;20056;-77
2022/08/09 06:26:46;;;;;;;16.20;8.30;;;;;;;;;;5047842;28;20252;-84
2022/08/09 06:29:11;;;;;;;13.65;8.23;;;;;;;;;;5027246;28;20056;-81
2022/08/09 06:31:37;;;;;;;11.27;7.97;;;;;;;;;;5029652;28;20947;-80
2022/08/09 06:34:08;;;;;;;10.73;7.00;;;;;;;;;;5015926;28;20104;-82
2022/08/09 06:36:33;;;;;;;10.45;6.32;;;;;;;;;;5048392;27;20467;-82
2022/08/09 06:38:58;;;;;;;9.52;5.55;;;;;;;;;;5028380;28;20165;-82
2022/08/09 06:41:24;;;;;;;8.10;4.68;;;;;;;;;;5026937;28;20551;-81
2022/08/09 06:43:49;;;;;;;8.32;4.55;;;;;;;;;;5030156;28;20048;-81
2022/08/09 06:46:17;;;;;;;5.93;3.63;;;;;;;;;;5042364;27;20035;-82
2022/08/09 06:48:45;;;;;;;7.43;4.10;;;;;;;;;;5044745;28;20574;-76
2022/08/09 06:51:12;;;;;;;7.38;3.25;;;;;;;;;;5035632;27;20036;-76
2022/08/09 06:53:38;;;;;;;6.28;2.97;;;;;;;;;;5032917;28;20056;-77
2022/08/09 06:56:04;;;;;;;5.25;2.88;;;;;;;;;;5028468;28;20068;-77
2022/08/09 06:58:29;;;;;;;5.20;2.97;;;;;;;;;;5025455;28;20105;-76
2022/08/09 07:00:55;;;;;;;4.68;2.80;;;;;;;;;;5037203;28;20033;-77
2022/08/09 07:03:21;;;;;;;6.80;2.65;;;;;;;;;;5054970;28;20506;-77
2022/08/09 07:05:47;;;;;;;4.57;2.30;;;;;;;;;;5061886;28;20033;-77
2022/08/09 07:08:12;;;;;;;4.88;2.00;;;;;;;;;;5062026;28;20032;-77
2022/08/09 07:10:40;;;;;;;4.45;2.10;;;;;;;;;;5059983;28;20386;-77
2022/08/09 07:13:07;;;;;;;5.88;2.28;;;;;;;;;;5069021;28;20547;-75
2022/08/09 07:15:33;;;;;;;4.30;2.08;;;;;;;;;;5049340;28;20499;-76
2022/08/09 07:17:58;;;;;;;3.83;1.92;;;;;;;;;;5071244;28;20037;-76
2022/08/09 07:20:27;;;;;;;4.53;2.00;;;;;;;;;;5063337;28;20051;-76
2022/08/09 07:22:52;;;;;;;3.85;1.63;;;;;;;;;;5058787;27;20106;-76
2022/08/09 07:25:18;;;;;;;5.05;2.05;;;;;;;;;;5075555;27;20061;-76
2022/08/09 07:27:44;;;;;;;4.32;2.30;;;;;;;;;;5069072;28;20025;-77
2022/08/09 07:30:12;;;;;;;5.43;2.00;;;;;;;;;;5082476;28;20032;-76
2022/08/09 07:32:37;;;;;;;3.42;1.48;;;;;;;;;;5078501;28;20036;-77
2022/08/09 07:35:04;;;;;;;2.72;1.20;;;;;;;;;;5069330;28;20032;-75
2022/08/09 07:37:31;;;;;;;3.38;1.33;;;;;;;;;;5064542;28;20485;-76
2022/08/09 07:40:00;;;;;;;4.68;1.45;;;;;;;;;;5062426;28;20299;-76
2022/08/09 07:42:28;;;;;;;3.88;1.73;;;;;;;;;;5064049;28;20025;-75
2022/08/09 07:44:53;;;;;;;4.43;1.60;;;;;;;;;;5063650;28;20496;-76
2022/08/09 07:47:20;;;;;;;3.35;1.60;;;;;;;;;;5071355;28;20100;-78
2022/08/09 07:49:45;;;;;;;5.47;1.75;;;;;;;;;;5063537;28;20056;-75
2022/08/09 07:52:10;;;;;;;3.50;1.30;;;;;;;;;;5071711;28;20031;-76
2022/08/09 07:54:37;;;;;;;4.38;1.50;;;;;;;;;;5062907;28;20032;-76
2022/08/09 07:57:04;;;;;;;6.15;1.45;;;;;;;;;;5076297;28;20043;-76
2022/08/09 07:59:30;;;;;;;3.70;1.35;;;;;;;;;;5077119;28;20047;-76
2022/08/09 08:01:55;;;;;;;3.42;1.25;;;;;;;;;;5048259;28;20078;-76
2022/08/09 08:04:22;;;;;;;4.95;1.60;;;;;;;;;;5055609;28;20412;-76
2022/08/09 08:06:49;;;;;;;2.85;1.42;;;;;;;;;;5068727;28;20124;-77
2022/08/09 08:09:16;;;;;;;3.45;1.27;;;;;;;;;;5052319;28;20397;-77
2022/08/09 08:11:44;;;;;;;3.67;1.40;;;;;;;;;;5065584;28;20117;-77
2022/08/09 08:14:10;;;;;;;4.30;1.30;;;;;;;;;;5077373;27;20039;-78
2022/08/09 08:16:38;;;;;;;5.18;1.30;;;;;;;;;;5036947;28;20094;-71
2022/08/09 08:19:05;;;;;;;4.03;1.13;;;;;;;;;;5022331;28;20537;-73
2022/08/09 08:21:31;;;;;;;2.88;1.10;;;;;;;;;;5026028;28;20037;-75
2022/08/09 08:23:59;;;;;;;4.88;1.15;;;;;;;;;;5025333;28;20134;-77
2022/08/09 08:26:24;;;;;;;3.20;1.00;;;;;;;;;;5019006;28;20048;-73
2022/08/09 08:28:50;;;;;;;3.50;1.05;;;;;;;;;;5022540;28;20057;-72
2022/08/09 08:31:16;;;;;;;2.83;1.00;;;;;;;;;;5023952;28;20093;-73
2022/08/09 08:33:42;;;;;;;2.45;0.95;;;;;;;;;;5030494;28;20044;-72
2022/08/09 08:36:07;;;;;;;3.35;0.90;;;;;;;;;;5023264;27;20044;-79
2022/08/09 08:38:37;;;;;;;3.30;0.95;;;;;;;;;;5022620;28;20192;-77
2022/08/09 08:41:02;;;;;;;2.90;1.00;;;;;;;;;;5037277;28;20037;-78
2022/08/09 08:43:28;;;;;;;2.83;0.90;;;;;;;;;;5034263;28;20044;-79
2022/08/09 08:45:56;;;;;;;3.03;1.10;;;;;;;;;;5040265;28;20029;-79
2022/08/09 08:48:21;;;;;;;2.22;1.00;;;;;;;;;;5025726;28;20048;-78
2022/08/09 08:50:47;;;;;;;2.42;0.93;;;;;;;;;;5030687;28;20155;-72
2022/08/09 08:53:13;;;;;;;3.25;0.90;;;;;;;;;;5029990;27;20034;-77
2022/08/09 08:55:39;;;;;;;3.05;0.88;;;;;;;;;;5050490;27;20045;-79
2022/08/09 08:58:06;;;;;;;5.38;0.90;;;;;;;;;;5041770;28;20069;-78
2022/08/09 09:00:31;;;;;;;2.10;0.75;;;;;;;;;;5033725;28;20041;-73
2022/08/09 09:03:00;;;;;;;4.05;0.90;;;;;;;;;;5041414;28;20020;-76
2022/08/09 09:05:26;;;;;;;2.60;0.80;;;;;;;;;;5015641;28;20132;-76
2022/08/09 09:07:52;;;;;;;2.17;0.82;;;;;;;;;;5025304;28;20041;-75
2022/08/09 09:10:17;;;;;;;2.35;0.90;;;;;;;;;;5027318;28;20028;-76
2022/08/09 09:12:43;;;;;;;2.10;0.60;;;;;;;;;;5038565;28;20143;-74
2022/08/09 09:15:09;;;;;;;2.78;0.70;;;;;;;;;;5020391;28;20805;-75
2022/08/09 09:17:34;;;;;;;2.78;0.90;;;;;;;;;;5045807;28;20028;-79
2022/08/09 09:20:00;;;;;;;3.15;0.90;;;;;;;;;;5040730;28;20111;-75
2022/08/09 09:22:26;;;;;;;1.98;0.90;;;;;;;;;;5039303;28;20040;-77
2022/08/09 09:24:53;;;;;;;2.28;0.70;;;;;;;;;;5033077;28;20071;-76
2022/08/09 09:27:19;;;;;;;3.63;0.60;;;;;;;;;;5050323;28;20047;-76
2022/08/09 09:29:46;;;;;;;6.05;0.80;;;;;;;;;;5063322;28;20033;-78
2022/08/09 09:32:11;;;;;;;3.65;0.80;;;;;;;;;;5035982;28;20035;-75
2022/08/09 09:34:37;;;;;;;2.10;0.70;;;;;;;;;;5031968;28;20091;-77
2022/08/09 09:37:03;;;;;;;2.65;0.73;;;;;;;;;;5017516;28;20155;-77
2022/08/09 09:39:29;;;;;;;2.33;0.77;;;;;;;;;;5019876;28;20036;-75
2022/08/09 09:41:56;;;;;;;1.85;0.90;;;;;;;;;;5019608;28;20604;-75
2022/08/09 09:44:23;;;;;;;3.03;0.70;;;;;;;;;;5020692;28;20560;-72
2022/08/09 09:46:54;;;;;;;2.17;0.85;;;;;;;;;;5020963;28;20233;-74
2022/08/09 09:49:20;;;;;;;2.50;0.80;;;;;;;;;;5022302;28;20093;-76
2022/08/09 09:51:48;;;;;;;2.42;0.93;;;;;;;;;;5023033;28;20500;-74
2022/08/09 09:54:16;;;;;;;2.38;1.08;;;;;;;;;;5022586;28;20029;-76
2022/08/09 09:56:46;;;;;;;3.28;0.70;;;;;;;;;;5021243;28;20074;-73
2022/08/09 09:59:13;;;;;;;4.03;1.00;;;;;;;;;;5022946;28;20315;-77
2022/08/09 10:01:45;;;;;;;2.70;0.90;;;;;;;;;;5024860;28;20035;-74
2022/08/09 10:04:14;;;;;;;4.65;1.00;;;;;;;;;;5025191;28;20130;-73
2022/08/09 10:06:41;;;;;;;4.00;1.00;;;;;;;;;;5021691;28;20487;-74
2022/08/09 10:09:07;;;;;;;2.42;1.00;;;;;;;;;;5023068;28;20272;-72
2022/08/09 10:11:35;;;;;;;2.47;0.88;;;;;;;;;;5020995;28;20283;-76
2022/08/09 10:14:02;;;;;;;2.83;1.00;;;;;;;;;;5021434;28;20040;-75
2022/08/09 10:16:30;;;;;;;2.53;0.85;;;;;;;;;;5024041;28;20241;-75
2022/08/09 10:18:56;;;;;;;2.03;0.82;;;;;;;;;;5019816;28;20229;-77
2022/08/09 10:21:22;;;;;;;2.35;0.80;;;;;;;;;;5022156;28;20460;-74
2022/08/09 10:23:48;;;;;;;3.42;0.95;;;;;;;;;;5022081;28;20893;-75
2022/08/09 10:26:13;;;;;;;2.38;0.90;;;;;;;;;;5034527;28;20044;-75
2022/08/09 10:28:40;;;;;;;3.03;0.88;;;;;;;;;;5023948;28;20040;-75
2022/08/09 10:31:09;;;;;;;1.77;0.77;;;;;;;;;;5017494;28;20438;-75
2022/08/09 10:33:35;;;;;;;2.90;0.70;;;;;;;;;;5021730;28;20551;-74
2022/08/09 10:36:00;;;;;;;1.52;0.70;;;;;;;;;;5023359;28;20262;-76
2022/08/09 10:38:26;;;;;;;3.60;0.80;;;;;;;;;;5021036;28;20140;-75
2022/08/09 10:40:51;;;;;;;2.28;0.90;;;;;;;;;;5019674;28;20685;-74
2022/08/09 10:43:17;;;;;;;2.25;0.63;;;;;;;;;;5036317;28;20036;-75
2022/08/09 10:45:43;;;;;;;2.30;0.80;;;;;;;;;;5018648;28;20036;-74
2022/08/09 10:48:31;;;;;;;1.83;0.75;;;;;;;;;;5024249;28;20498;-75
2022/08/09 10:51:13;;;;;;;2.17;0.90;;;;;;;;;;5051676;28;20136;-79
2022/08/09 10:53:47;;;;;;;1.63;0.60;;;;;;;;;;5061829;28;20513;-78
2022/08/09 10:56:15;;;;;;;1.98;0.60;;;;;;;;;;5035294;28;20636;-80
2022/08/09 10:58:40;;;;;;;1.20;0.63;;;;;;;;;;5038465;28;20144;-74
2022/08/09 11:01:25;;;;;;;0.68;0.43;;;;;;;;;;5038481;28;20659;-78
2022/08/09 11:04:10;;;;;;;6.03;0.63;;;;;;;;;;5021001;28;20060;-75
2022/08/09 11:06:36;;;;;;;1.13;0.68;;;;;;;;;;5009732;28;21781;-76
2022/08/09 11:09:05;;;;;;;1.75;0.60;;;;;;;;;;5037557;28;20033;-75
2022/08/09 11:11:49;;;;;;;3.15;0.50;;;;;;;;;;5019594;28;20446;-74
2022/08/09 11:14:29;;;;;;;1.52;0.50;;;;;;;;;;5035197;28;20071;-75
2022/08/09 11:16:55;;;;;;;1.52;0.60;;;;;;;;;;5025075;28;20662;-79
2022/08/09 11:19:41;;;;;;;1.80;0.52;;;;;;;;;;5034870;28;20040;-77
2022/08/09 11:22:08;;;;;;;2.03;0.50;;;;;;;;;;5042306;28;20031;-73
2022/08/09 11:24:53;;;;;;;1.58;0.40;;;;;;;;;;5051088;28;20214;-76
2022/08/09 11:27:38;;;;;;;1.10;0.50;;;;;;;;;;5031967;28;20118;-77
2022/08/09 11:30:04;;;;;;;1.13;0.50;;;;;;;;;;5059054;27;20119;-77
2022/08/09 11:32:38;;;;;;;1.75;0.40;;;;;;;;;;5032636;28;20033;-76
2022/08/09 11:35:22;;;;;;;3.28;0.60;;;;;;;;;;5011906;28;20049;-75
2022/08/09 11:37:49;;;;;;;0.73;0.47;;;;;;;;;;5041147;28;20032;-75
2022/08/09 11:40:17;;;;;;;0.50;0.45;;;;;;;;;;5027209;28;20083;-74
2022/08/09 11:42:47;;;;;;;1.23;0.68;;;;;;;;;;5031669;28;20071;-78
2022/08/09 11:45:22;;;;;;;2.35;0.60;;;;;;;;;;5023482;28;20056;-77
2022/08/09 11:47:49;;;;;;;0.80;0.50;;;;;;;;;;5024772;28;20056;-73
2022/08/09 11:50:17;;;;;;;1.58;0.47;;;;;;;;;;5028377;28;21124;-76
2022/08/09 11:52:59;;;;;;;0.98;0.70;;;;;;;;;;5026297;28;20139;-73
2022/08/09 11:55:31;;;;;;;1.05;0.60;;;;;;;;;;5024091;28;20048;-73
2022/08/09 11:58:00;;;;;;;2.35;0.60;;;;;;;;;;5023451;28;20041;-71
2022/08/09 12:00:29;;;;;;;3.47;0.50;;;;;;;;;;5022267;28;20158;-70
2022/08/09 12:02:55;;;;;;;1.05;0.60;;;;;;;;;;5022478;28;20039;-71
2022/08/09 12:05:33;;;;;;;0.93;0.50;;;;;;;;;;5024751;28;20741;-72
2022/08/09 12:08:04;;;;;;;7.95;0.80;;;;;;;;;;5038543;28;20056;-71
2022/08/09 12:10:30;;;;;;;0.70;0.40;;;;;;;;;;5027199;28;20033;-71
2022/08/09 12:12:56;;;;;;;0.85;0.60;;;;;;;;;;5021826;28;20063;-73
2022/08/09 12:15:27;;;;;;;1.50;0.63;;;;;;;;;;5023229;28;20110;-73
2022/08/09 12:17:53;;;;;;;2.00;0.50;;;;;;;;;;5024672;28;20051;-74
2022/08/09 12:20:22;;;;;;;0.73;0.60;;;;;;;;;;5022749;28;20025;-72
2022/08/09 12:22:48;;;;;;;1.17;0.60;;;;;;;;;;5020803;28;20036;-73
2022/08/09 12:25:15;;;;;;;1.75;0.70;;;;;;;;;;5022762;28;20213;-74
2022/08/09 12:27:43;;;;;;;1.85;0.60;;;;;;;;;;5023008;27;20035;-73
2022/08/09 12:30:12;;;;;;;1.00;0.60;;;;;;;;;;5047094;28;22201;-72
2022/08/09 12:32:39;;;;;;;1.40;0.60;;;;;;;;;;5024266;28;20044;-71
2022/08/09 12:35:06;;;;;;;1.60;0.60;;;;;;;;;;5024561;28;20037;-74
2022/08/09 12:37:34;;;;;;;1.38;0.60;;;;;;;;;;5015174;28;20266;-73
2022/08/09 12:40:01;;;;;;;5.20;0.73;;;;;;;;;;5016830;28;20048;-73
2022/08/09 12:42:26;;;;;;;0.85;0.40;;;;;;;;;;5021980;28;20502;-75
2022/08/09 12:44:52;;;;;;;1.85;0.60;;;;;;;;;;5031745;28;20045;-80
2022/08/09 12:47:20;;;;;;;3.95;0.70;;;;;;;;;;5032249;28;20853;-79
2022/08/09 12:50:16;;;;;;;3.30;0.65;;;;;;;;;;5026978;28;20131;-77
2022/08/09 12:52:39;;;;;;;1.33;0.57;;;;;;;;;;5034971;28;20056;-79
2022/08/09 12:55:06;;;;;;;2.28;0.60;;;;;;;;;;5028080;28;21001;-79
2022/08/09 12:57:35;;;;;;;3.20;0.82;;;;;;;;;;5015450;28;20155;-80
2022/08/09 13:00:11;;;;;;;1.42;0.70;;;;;;;;;;5027107;28;20552;-79
2022/08/09 13:02:48;;;;;;;2.75;0.63;;;;;;;;;;5023655;28;20544;-80
2022/08/09 13:05:13;;;;;;;2.88;0.90;;;;;;;;;;5022072;28;20530;-81
2022/08/09 13:07:39;;;;;;;2.53;0.73;;;;;;;;;;5023926;28;20043;-82
2022/08/09 13:10:04;;;;;;;1.17;0.50;;;;;;;;;;5022222;28;20209;-82
2022/08/09 13:12:30;;;;;;;1.27;0.70;;;;;;;;;;5021656;28;20036;-80
2022/08/09 13:15:07;;;;;;;2.22;0.70;;;;;;;;;;5036100;28;20028;-81
2022/08/09 13:17:32;;;;;;;2.63;0.80;;;;;;;;;;5027569;28;20045;-77
2022/08/09 13:19:59;;;;;;;5.10;0.80;;;;;;;;;;5030889;28;20092;-78
2022/08/09 13:22:27;;;;;;;1.42;0.80;;;;;;;;;;5030930;28;20041;-79
2022/08/09 13:24:53;;;;;;;1.70;0.80;;;;;;;;;;5043725;28;20037;-79
2022/08/09 13:27:34;;;;;;;2.10;0.60;;;;;;;;;;5027341;28;20130;-78
2022/08/09 13:30:05;;;;;;;1.42;0.63;;;;;;;;;;5018287;28;20044;-74
2022/08/09 13:32:47;;;;;;;4.25;0.80;;;;;;;;;;5030700;28;20033;-72
2022/08/09 13:35:15;;;;;;;3.30;0.60;;;;;;;;;;5016578;28;20564;-72
2022/08/09 13:37:40;;;;;;;1.65;0.50;;;;;;;;;;5014788;28;20140;-73
2022/08/09 13:40:07;;;;;;;1.60;0.73;;;;;;;;;;5014217;28;20432;-71
2022/08/09 13:42:32;;;;;;;1.52;0.68;;;;;;;;;;5018277;28;20110;-72
2022/08/09 13:44:58;;;;;;;1.65;0.80;;;;;;;;;;5018240;28;21880;-69
2022/08/09 13:47:23;;;;;;;1.30;0.70;;;;;;;;;;5019332;28;20202;-76
2022/08/09 13:49:51;;;;;;;2.03;0.75;;;;;;;;;;5021079;28;20543;-71
2022/08/09 13:52:16;;;;;;;2.95;0.82;;;;;;;;;;5034141;28;20029;-74
2022/08/09 13:54:41;;;;;;;4.47;0.80;;;;;;;;;;5019600;28;20580;-75
2022/08/09 13:57:09;;;;;;;2.03;0.60;;;;;;;;;;5031722;28;20215;-72
2022/08/09 13:59:35;;;;;;;1.27;0.50;;;;;;;;;;5018592;28;20033;-76
2022/08/09 14:02:00;;;;;;;3.75;0.90;;;;;;;;;;5015237;28;20036;-72
2022/08/09 14:04:26;;;;;;;3.33;1.00;;;;;;;;;;5018237;28;20065;-74
2022/08/09 14:06:52;;;;;;;2.85;0.90;;;;;;;;;;5020593;28;20561;-70
2022/08/09 14:09:18;;;;;;;1.77;0.88;;;;;;;;;;5006600;28;20078;-72
2022/08/09 14:11:44;;;;;;;7.20;1.10;;;;;;;;;;5036222;28;20689;-72
2022/08/09 14:14:09;;;;;;;6.85;1.00;;;;;;;;;;5035964;28;20036;-77
2022/08/09 14:16:34;;;;;;;5.57;1.08;;;;;;;;;;5029639;28;20032;-72
2022/08/09 14:19:00;;;;;;;5.88;1.13;;;;;;;;;;5024325;28;20029;-72
2022/08/09 14:21:25;;;;;;;5.32;1.00;;;;;;;;;;5027816;28;20074;-72
2022/08/09 14:23:53;;;;;;;4.20;1.00;;;;;;;;;;5026226;28;20053;-71
2022/08/09 14:26:20;;;;;;;2.17;0.85;;;;;;;;;;5025309;28;20205;-71
2022/08/09 14:28:45;;;;;;;4.18;1.17;;;;;;;;;;5025916;28;20033;-74
2022/08/09 14:31:10;;;;;;;4.43;1.20;;;;;;;;;;5028563;28;20060;-71
2022/08/09 14:33:38;;;;;;;4.78;1.10;;;;;;;;;;5027419;28;20029;-72
2022/08/09 14:36:03;;;;;;;3.83;0.95;;;;;;;;;;5029353;28;20075;-72
2022/08/09 14:38:31;;;;;;;4.47;0.93;;;;;;;;;;5025625;28;20032;-71